Terminal Aerodrome Forecast
Issued by NWS

Home | Current Version | Previous Version | Text Only | Print | Product List | Glossary On
Versions: 1 2 3 4 5 6 7 8 9 10 11 12 13 14 15 16 17 18 19 20 21 22 23 24 25 26 27 28 29 30 31 32 33 34 35 36 37
000
FTUS45 KBOU 191740
TAFBJC
TAF
KBJC 191740Z 1918/2018 04007KT 3SM -SN BR BKN012 OVC020
      TEMPO 1918/1920 1SM -SN BR BKN006 OVC015
     FM192000 03012KT 4SM -SN BR BKN008 OVC014
      TEMPO 1920/1923 3/4SM -SN BR BKN005 OVC012
     FM192300 01010G16KT 2SM -SN BR OVC005
      TEMPO 1923/2003 3/4SM -SN BR OVC002
     FM200500 35013KT 3SM -SN BR BKN004 OVC010
     FM201000 04008KT 5SM BR BKN006 OVC012=

USA.gov is the U.S. government's official web portal to all federal, state and local government web resources and services.